Time;durP1;ratioP1;P1;durP2;ratioP2;P2;SDS_P1;SDS_P2;PMS_P1;PMS_P2;Temp;Humidity;BMP_temperature;BMP_pressure;BME280_temperature;BME280_humidity;BME280_pressure;Samples;Min_cycle;Max_cycle;Signal;HPM_P1;HPM_P2
2023/08/08 00:01:44;;;;;;;0.30;0.30;;;;;;;15.91;67.03;100971.47;5202249;28;20029;-85
2023/08/08 00:04:35;;;;;;;0.35;0.35;;;;;;;16.05;66.56;100964.63;5194005;28;20048;-87
2023/08/08 00:07:30;;;;;;;0.40;0.40;;;;;;;16.03;66.85;100963.84;5196765;28;20021;-86
2023/08/08 00:10:20;;;;;;;0.45;0.45;;;;;;;16.01;66.54;100956.91;5186284;28;20041;-86
2023/08/08 00:13:11;;;;;;;0.20;0.20;;;;;;;16.03;66.28;100950.59;5188951;28;20025;-87
2023/08/08 00:16:02;;;;;;;0.50;0.50;;;;;;;15.71;67.79;100952.03;5198452;28;20076;-87
2023/08/08 00:18:53;;;;;;;0.43;0.40;;;;;;;15.81;67.28;100947.19;5217014;28;20508;-86
2023/08/08 00:21:44;;;;;;;0.47;0.47;;;;;;;15.76;66.96;100935.94;5183957;28;20417;-86
2023/08/08 00:24:35;;;;;;;0.63;0.63;;;;;;;15.86;66.67;100939.94;5205818;28;20040;-86
2023/08/08 00:27:26;;;;;;;0.30;0.30;;;;;;;15.61;67.67;100935.72;5193591;28;20033;-86
2023/08/08 00:30:16;;;;;;;0.50;0.50;;;;;;;15.86;66.64;100930.22;5200388;28;20112;-86
2023/08/08 00:33:07;;;;;;;0.40;0.40;;;;;;;15.63;67.66;100933.00;5181273;28;20036;-87
2023/08/08 00:35:58;;;;;;;0.65;0.52;;;;;;;15.42;68.39;100939.16;5199156;28;20140;-85
2023/08/08 00:38:49;;;;;;;0.50;0.50;;;;;;;15.55;67.92;100939.50;5199600;28;20486;-88
2023/08/08 00:41:39;;;;;;;0.52;0.50;;;;;;;15.59;67.85;100937.56;5201705;28;20067;-86
2023/08/08 00:44:30;;;;;;;0.55;0.55;;;;;;;15.36;68.83;100935.97;5214591;28;20060;-86
2023/08/08 00:47:21;;;;;;;0.90;0.73;;;;;;;15.44;68.38;100939.13;5188817;28;20497;-87
2023/08/08 00:50:13;;;;;;;0.20;0.20;;;;;;;15.51;67.90;100931.75;5185660;28;20440;-87
2023/08/08 00:53:05;;;;;;;0.75;0.75;;;;;;;15.51;68.31;100930.00;5204286;28;20512;-86
2023/08/08 00:55:55;;;;;;;4.40;1.15;;;;;;;15.73;67.64;100929.91;5213043;28;20037;-87
2023/08/08 00:58:46;;;;;;;0.50;0.50;;;;;;;15.43;69.05;100935.59;5195492;28;20100;-85
2023/08/08 01:01:37;;;;;;;0.63;0.63;;;;;;;15.62;67.59;100934.78;5210409;28;20507;-85
2023/08/08 01:04:28;;;;;;;0.38;0.38;;;;;;;15.36;68.88;100926.22;5184932;28;20412;-87
2023/08/08 01:07:18;;;;;;;0.57;0.57;;;;;;;15.60;67.90;100934.00;5193378;28;20074;-85
2023/08/08 01:10:14;;;;;;;0.30;0.30;;;;;;;15.51;68.17;100931.75;5187495;28;20032;-87
2023/08/08 01:13:10;;;;;;;0.20;0.20;;;;;;;15.55;67.82;100936.00;5197192;28;20068;-86
2023/08/08 01:16:03;;;;;;;0.20;0.20;;;;;;;15.52;68.33;100933.47;5189189;28;20036;-86
2023/08/08 01:18:55;;;;;;;0.55;0.55;;;;;;;15.52;68.32;100941.41;5195498;28;20033;-86
2023/08/08 01:21:48;;;;;;;0.60;0.60;;;;;;;15.46;68.78;100937.25;5182762;28;20040;-87
2023/08/08 01:24:39;;;;;;;0.57;0.57;;;;;;;15.28;69.26;100928.34;5218834;28;20067;-86
2023/08/08 01:27:30;;;;;;;0.40;0.40;;;;;;;15.27;69.37;100931.91;5194974;28;20116;-88
2023/08/08 01:30:21;;;;;;;0.50;0.50;;;;;;;15.24;69.48;100926.78;5201672;28;20512;-85
2023/08/08 01:33:12;;;;;;;0.30;0.30;;;;;;;15.16;69.89;100931.53;5185902;28;20078;-87
2023/08/08 01:36:10;;;;;;;0.45;0.45;;;;;;;15.05;70.33;100922.28;5207061;28;20476;-86
2023/08/08 01:39:05;;;;;;;0.30;0.30;;;;;;;15.03;70.47;100929.41;5193751;28;20037;-86
2023/08/08 01:41:56;;;;;;;0.40;0.40;;;;;;;14.97;70.67;100923.50;5202457;28;20036;-85
2023/08/08 01:44:48;;;;;;;0.22;0.22;;;;;;;15.10;70.14;100930.84;5202047;28;20128;-85
2023/08/08 01:47:39;;;;;;;0.20;0.20;;;;;;;14.84;71.13;100929.31;5194217;28;20063;-87
2023/08/08 01:50:30;;;;;;;0.20;0.20;;;;;;;14.92;70.97;100915.78;5191777;28;20029;-85
2023/08/08 01:53:21;;;;;;;0.20;0.20;;;;;;;14.71;71.90;100912.28;5194186;28;20033;-86
2023/08/08 01:56:11;;;;;;;0.30;0.30;;;;;;;14.63;72.24;100909.91;5207786;28;20037;-85
2023/08/08 01:59:02;;;;;;;7.55;1.45;;;;;;;14.74;71.47;100913.00;5194470;28;20036;-87
2023/08/08 02:01:53;;;;;;;0.40;0.40;;;;;;;14.82;70.95;100909.19;5218049;28;20131;-87
2023/08/08 02:04:44;;;;;;;0.63;0.63;;;;;;;14.95;70.71;100905.09;5205239;28;20029;-85
2023/08/08 02:07:35;;;;;;;0.40;0.40;;;;;;;14.82;71.23;100903.91;5196045;28;20016;-87
2023/08/08 02:10:25;;;;;;;0.28;0.28;;;;;;;14.64;72.02;100914.28;5190814;28;20096;-86
2023/08/08 02:13:16;;;;;;;0.65;0.52;;;;;;;14.64;71.96;100906.34;5191827;28;20024;-86
2023/08/08 02:16:07;;;;;;;2.03;0.80;;;;;;;14.70;71.97;100892.91;5198996;28;20029;-87
2023/08/08 02:18:58;;;;;;;0.60;0.60;;;;;;;14.71;71.77;100899.06;5193630;28;20029;-86
2023/08/08 02:21:49;;;;;;;0.30;0.30;;;;;;;14.58;72.22;100896.06;5197471;28;20044;-86
2023/08/08 02:24:39;;;;;;;0.30;0.30;;;;;;;14.60;72.30;100888.91;5204539;28;20033;-86
2023/08/08 02:27:30;;;;;;;0.28;0.28;;;;;;;14.47;73.22;100886.78;5189111;28;20025;-86
2023/08/08 02:30:21;;;;;;;0.30;0.30;;;;;;;14.46;73.52;100887.69;5206925;28;20051;-86
2023/08/08 02:33:12;;;;;;;0.25;0.25;;;;;;;14.53;73.47;100893.59;5194941;28;20052;-85
2023/08/08 02:36:03;;;;;;;0.52;0.52;;;;;;;14.51;73.25;100890.16;5194950;28;20071;-86
2023/08/08 02:38:54;;;;;;;0.50;0.50;;;;;;;14.32;74.16;100882.97;5194996;28;20108;-86
2023/08/08 02:41:44;;;;;;;0.90;0.90;;;;;;;14.26;74.40;100874.44;5190566;28;20544;-85
2023/08/08 02:44:35;;;;;;;0.20;0.20;;;;;;;14.26;74.68;100872.66;5215729;28;20508;-87
2023/08/08 02:47:26;;;;;;;0.40;0.40;;;;;;;14.26;74.72;100874.44;5194535;28;20484;-85
2023/08/08 02:50:17;;;;;;;0.25;0.25;;;;;;;14.19;75.09;100865.03;5196692;28;20021;-86
2023/08/08 02:53:08;;;;;;;0.70;0.57;;;;;;;14.19;74.94;100862.41;5190463;28;20504;-86
2023/08/08 02:55:59;;;;;;;0.75;0.75;;;;;;;14.13;75.46;100864.38;5204978;28;20112;-85
2023/08/08 02:58:49;;;;;;;0.30;0.30;;;;;;;14.22;75.15;100862.28;5202454;28;20629;-88
2023/08/08 03:01:40;;;;;;;0.30;0.30;;;;;;;14.24;75.04;100865.72;5204478;28;20033;-85
2023/08/08 03:04:31;;;;;;;0.52;0.52;;;;;;;14.25;74.88;100859.53;5206030;28;20052;-86
2023/08/08 03:07:22;;;;;;;0.80;0.68;;;;;;;14.12;75.75;100864.44;5201998;28;20018;-86
2023/08/08 03:10:13;;;;;;;0.40;0.40;;;;;;;14.19;75.78;100862.41;5191500;28;20498;-86
2023/08/08 03:13:03;;;;;;;0.50;0.50;;;;;;;14.12;76.22;100856.53;5202582;28;20086;-86
2023/08/08 03:15:56;;;;;;;0.47;0.47;;;;;;;13.95;77.17;100851.91;5193880;28;20056;-86
2023/08/08 03:18:47;;;;;;;0.70;0.70;;;;;;;13.91;77.59;100853.81;5207654;28;20496;-88
2023/08/08 03:21:39;;;;;;;0.50;0.50;;;;;;;13.88;77.73;100845.16;5206114;28;20110;-86
2023/08/08 03:24:30;;;;;;;4.60;1.95;;;;;;;14.01;77.32;100851.66;5193796;28;20041;-86
2023/08/08 03:27:21;;;;;;;0.47;0.47;;;;;;;14.04;77.35;100854.19;5192239;28;20112;-86
2023/08/08 03:30:12;;;;;;;10.77;0.70;;;;;;;14.02;77.77;100848.09;5190119;28;20021;-86
2023/08/08 03:33:03;;;;;;;0.30;0.30;;;;;;;13.89;78.59;100845.09;5199979;28;20021;-86
2023/08/08 03:35:54;;;;;;;0.30;0.30;;;;;;;13.81;79.17;100837.50;5188138;28;20032;-86
2023/08/08 03:38:45;;;;;;;0.40;0.40;;;;;;;13.82;79.10;100840.97;5204940;28;20063;-87
2023/08/08 03:41:36;;;;;;;4.28;1.25;;;;;;;13.88;78.96;100839.88;5194783;28;20799;-85
2023/08/08 03:44:27;;;;;;;0.73;0.50;;;;;;;13.93;78.04;100851.09;5210546;28;20048;-85
2023/08/08 03:47:18;;;;;;;0.30;0.30;;;;;;;13.81;79.25;100853.31;5193259;28;20033;-86
2023/08/08 03:50:10;;;;;;;0.47;0.47;;;;;;;13.88;79.54;100850.44;5191635;28;20059;-87
2023/08/08 03:53:01;;;;;;;0.70;0.65;;;;;;;13.99;79.35;100866.72;5191317;28;20025;-87
2023/08/08 03:55:51;;;;;;;0.40;0.40;;;;;;;13.99;79.29;100866.72;5186244;28;20048;-86
2023/08/08 03:58:42;;;;;;;0.55;0.55;;;;;;;13.94;79.48;100858.97;5192591;28;20070;-86
2023/08/08 04:01:33;;;;;;;0.20;0.20;;;;;;;13.87;80.58;100851.34;5184263;28;20029;-87
2023/08/08 04:04:24;;;;;;;0.40;0.40;;;;;;;13.81;80.96;100858.59;5190122;28;20033;-86
2023/08/08 04:07:14;;;;;;;0.20;0.20;;;;;;;14.11;79.25;100855.66;5182559;28;20021;-87
2023/08/08 04:10:06;;;;;;;0.38;0.38;;;;;;;13.93;80.56;100851.09;5190724;28;20063;-86
2023/08/08 04:12:57;;;;;;;0.65;0.63;;;;;;;13.93;80.82;100848.47;5201069;28;20394;-86
2023/08/08 04:15:47;;;;;;;0.40;0.40;;;;;;;14.06;80.21;100847.06;5188536;28;20029;-87
2023/08/08 04:18:38;;;;;;;0.57;0.57;;;;;;;13.88;81.34;100847.78;5194390;28;20017;-87
2023/08/08 04:21:32;;;;;;;0.22;0.22;;;;;;;13.94;81.12;100839.63;5214407;28;20033;-87
2023/08/08 04:24:22;;;;;;;1.77;1.20;;;;;;;13.90;81.25;100838.03;5201928;28;20087;-86
2023/08/08 04:27:13;;;;;;;0.30;0.30;;;;;;;13.90;81.66;100840.69;5209506;28;20538;-87
2023/08/08 04:30:04;;;;;;;0.85;0.65;;;;;;;13.86;82.22;100839.94;5189313;28;20024;-87
2023/08/08 04:32:55;;;;;;;0.32;0.32;;;;;;;13.88;82.63;100839.88;5197823;28;20091;-85
2023/08/08 04:35:47;;;;;;;0.40;0.40;;;;;;;13.97;82.43;100844.78;5221658;28;20028;-86
2023/08/08 04:38:38;;;;;;;0.20;0.20;;;;;;;13.93;82.67;100845.81;5186181;28;20497;-86
2023/08/08 04:41:29;;;;;;;0.88;0.85;;;;;;;13.90;83.02;100843.31;5208117;28;20691;-86
2023/08/08 04:44:19;;;;;;;0.30;0.30;;;;;;;14.06;82.20;100847.06;5203615;28;20024;-89
2023/08/08 04:47:10;;;;;;;2.92;1.48;;;;;;;13.99;82.78;100846.44;5208464;28;20021;-87
2023/08/08 04:50:01;;;;;;;0.32;0.25;;;;;;;13.96;83.02;100840.44;5210118;28;20286;-89
2023/08/08 04:52:52;;;;;;;2.40;1.20;;;;;;;13.96;83.36;100851.00;5210725;28;20036;-87
2023/08/08 04:55:43;;;;;;;0.30;0.30;;;;;;;14.02;83.03;100848.09;5192731;28;20035;-86
2023/08/08 04:58:33;;;;;;;0.20;0.20;;;;;;;14.18;82.22;100843.09;5198840;28;20310;-86
2023/08/08 05:01:24;;;;;;;0.30;0.30;;;;;;;14.12;82.83;100836.28;5193162;28;20546;-87
2023/08/08 05:04:15;;;;;;;0.40;0.40;;;;;;;14.15;82.68;100841.44;5193337;28;20025;-86
2023/08/08 05:07:08;;;;;;;0.68;0.68;;;;;;;14.13;82.90;100834.50;5193469;28;20033;-87
2023/08/08 05:09:59;;;;;;;0.40;0.40;;;;;;;14.11;83.58;100831.91;5202991;28;20048;-85
2023/08/08 05:12:50;;;;;;;0.30;0.30;;;;;;;14.28;82.42;100831.25;5188799;28;20029;-87
2023/08/08 05:15:40;;;;;;;0.40;0.40;;;;;;;14.26;82.49;100827.81;5204185;28;20033;-86
2023/08/08 05:18:31;;;;;;;0.30;0.30;;;;;;;14.32;82.70;100834.63;5195530;28;20035;-83
2023/08/08 05:21:22;;;;;;;0.30;0.30;;;;;;;14.27;82.47;100826.00;5203108;28;20033;-83
2023/08/08 05:24:13;;;;;;;0.30;0.30;;;;;;;14.27;82.86;100831.28;5202830;28;20025;-85
2023/08/08 05:27:04;;;;;;;0.32;0.32;;;;;;;14.24;83.07;100828.78;5206514;28;20028;-84
2023/08/08 05:29:55;;;;;;;2.20;1.10;;;;;;;14.25;83.24;100831.34;5204525;28;20789;-84
2023/08/08 05:32:46;;;;;;;1.50;1.40;;;;;;;14.30;83.31;100833.81;5194091;28;20044;-85
2023/08/08 05:35:36;;;;;;;0.43;0.43;;;;;;;14.21;83.87;100829.78;5194464;28;20064;-84
2023/08/08 05:38:27;;;;;;;1.75;1.15;;;;;;;14.33;83.66;100838.97;5197425;28;20050;-83
2023/08/08 05:41:18;;;;;;;0.88;0.85;;;;;;;14.33;83.22;100820.50;5203643;28;20033;-85
2023/08/08 05:44:09;;;;;;;1.17;0.65;;;;;;;14.32;83.49;100831.97;5224067;28;20108;-83
2023/08/08 05:46:59;;;;;;;0.55;0.55;;;;;;;14.37;83.14;100831.78;5211556;28;20059;-84
2023/08/08 05:49:50;;;;;;;0.50;0.50;;;;;;;14.41;83.42;100842.16;5185077;28;20028;-84
2023/08/08 05:52:41;;;;;;;0.50;0.50;;;;;;;14.46;82.33;100829.63;5221707;28;20041;-86
2023/08/08 05:55:32;;;;;;;0.30;0.30;;;;;;;14.55;82.09;100840.72;5202582;28;20036;-84
2023/08/08 05:58:23;;;;;;;0.22;0.22;;;;;;;14.55;82.41;100838.06;5207733;28;20029;-84
2023/08/08 06:01:13;;;;;;;0.55;0.55;;;;;;;14.60;82.12;100836.97;5210590;28;20033;-85
2023/08/08 06:04:04;;;;;;;0.85;0.85;;;;;;;14.53;81.66;100840.78;5209892;28;20455;-84
2023/08/08 06:06:55;;;;;;;0.85;0.77;;;;;;;14.61;81.73;100837.81;5185710;28;20021;-84
2023/08/08 06:09:46;;;;;;;0.40;0.40;;;;;;;14.65;81.43;100842.06;5213905;28;20046;-84
2023/08/08 06:12:37;;;;;;;0.20;0.20;;;;;;;14.64;81.22;100843.81;5190997;28;20480;-84
2023/08/08 06:15:28;;;;;;;0.20;0.20;;;;;;;14.72;81.22;100843.53;5217982;28;20086;-85
2023/08/08 06:18:18;;;;;;;0.80;0.80;;;;;;;14.75;80.71;100853.97;5217113;28;20017;-85
2023/08/08 06:21:09;;;;;;;0.52;0.52;;;;;;;14.76;80.85;100853.03;5196894;28;20100;-85
2023/08/08 06:24:00;;;;;;;0.40;0.40;;;;;;;14.70;80.77;100860.38;5215819;28;20516;-86
2023/08/08 06:26:51;;;;;;;0.40;0.40;;;;;;;14.78;80.77;100866.19;5188541;28;20234;-85
2023/08/08 06:29:41;;;;;;;0.20;0.20;;;;;;;14.85;80.43;100870.28;5203276;28;20029;-85
2023/08/08 06:32:32;;;;;;;0.85;0.85;;;;;;;14.78;80.59;100866.19;5201583;28;20037;-87
2023/08/08 06:35:23;;;;;;;0.43;0.43;;;;;;;14.84;80.65;100865.94;5176537;28;20060;-85
2023/08/08 06:37:53;;;;;;;0.60;0.60;;;;;;;14.83;80.22;100858.91;5199064;28;20120;-85
2023/08/08 06:40:43;;;;;;;0.45;0.43;;;;;;;14.85;80.54;100870.28;5201378;28;20059;-86
2023/08/08 06:43:32;;;;;;;0.70;0.70;;;;;;;14.94;80.23;100869.03;5189320;28;20409;-85
2023/08/08 06:46:24;;;;;;;9.63;1.33;;;;;;;14.93;80.54;100876.09;5194393;28;20031;-86
2023/08/08 06:49:15;;;;;;;0.20;0.20;;;;;;;14.95;80.30;100865.47;5191535;28;20048;-85
2023/08/08 06:52:06;;;;;;;0.25;0.25;;;;;;;15.07;79.83;100866.72;5182618;28;20036;-85
2023/08/08 06:54:57;;;;;;;0.52;0.52;;;;;;;14.97;80.62;100871.53;5195598;28;20112;-85
2023/08/08 06:57:28;;;;;;;4.80;0.55;;;;;;;15.04;80.33;100870.34;5175444;28;20481;-86
2023/08/08 06:59:59;;;;;;;0.32;0.32;;;;;;;15.07;80.28;100866.72;5178092;28;20548;-86
2023/08/08 07:02:29;;;;;;;0.50;0.43;;;;;;;15.11;80.52;100866.50;5210783;28;20103;-85
2023/08/08 07:05:00;;;;;;;11.02;0.90;;;;;;;15.17;80.32;100867.16;5197528;28;20033;-86
2023/08/08 07:07:32;;;;;;;1.30;1.20;;;;;;;15.19;80.23;100865.31;5191884;28;20378;-86
2023/08/08 07:10:03;;;;;;;0.45;0.45;;;;;;;15.19;80.52;100866.19;5168003;28;20036;-85
2023/08/08 07:12:34;;;;;;;0.68;0.68;;;;;;;15.24;79.49;100858.91;5179575;28;20038;-86
2023/08/08 07:15:07;;;;;;;1.40;0.50;;;;;;;15.27;79.49;100860.53;5192128;28;20021;-85
2023/08/08 07:17:38;;;;;;;0.80;0.80;;;;;;;15.34;79.55;100867.28;5172574;28;20027;-86
2023/08/08 07:20:08;;;;;;;0.52;0.30;;;;;;;15.36;79.27;100872.50;5207478;28;20454;-86
2023/08/08 07:22:39;;;;;;;2.83;0.88;;;;;;;15.38;80.18;100865.34;5178758;28;20040;-87
2023/08/08 07:25:11;;;;;;;0.95;0.63;;;;;;;15.45;79.53;100865.94;5176933;28;20021;-85
2023/08/08 07:27:41;;;;;;;0.77;0.40;;;;;;;15.52;79.24;100862.09;5182226;28;20042;-85
2023/08/08 07:30:30;;;;;;;0.45;0.45;;;;;;;15.54;78.94;100865.53;5213928;28;20069;-86
2023/08/08 07:33:20;;;;;;;1.05;1.00;;;;;;;15.57;79.16;100860.09;5193142;28;20067;-86
2023/08/08 07:36:10;;;;;;;0.63;0.63;;;;;;;15.72;78.58;100855.88;5171908;28;20021;-85
2023/08/08 07:39:01;;;;;;;0.40;0.40;;;;;;;15.83;77.84;100860.66;5178278;28;20025;-87
2023/08/08 07:41:53;;;;;;;0.50;0.50;;;;;;;15.75;78.50;100855.75;5181042;28;20029;-85
2023/08/08 07:44:43;;;;;;;0.75;0.65;;;;;;;15.93;77.86;100847.91;5178510;28;20033;-85
2023/08/08 07:47:34;;;;;;;0.63;0.63;;;;;;;15.99;77.67;100848.44;5182829;28;20718;-86
2023/08/08 07:50:25;;;;;;;0.43;0.43;;;;;;;15.88;78.39;100848.13;5206502;28;20029;-85
2023/08/08 07:53:16;;;;;;;1.45;1.33;;;;;;;15.89;78.36;100860.44;5187100;28;20028;-85
2023/08/08 07:56:07;;;;;;;0.50;0.50;;;;;;;15.95;77.65;100852.19;5195698;28;20029;-86
2023/08/08 07:58:57;;;;;;;0.32;0.32;;;;;;;16.06;77.39;100856.97;5195686;28;20117;-86
2023/08/08 08:01:48;;;;;;;0.30;0.30;;;;;;;15.96;76.95;100853.91;5198174;28;20111;-86
2023/08/08 08:04:39;;;;;;;0.63;0.63;;;;;;;15.98;77.16;100860.00;5187466;28;20091;-86
2023/08/08 08:07:30;;;;;;;0.40;0.40;;;;;;;15.84;77.75;100860.63;5202274;28;20041;-85
2023/08/08 08:10:20;;;;;;;1.50;1.40;;;;;;;15.97;77.03;100852.09;5199037;28;20025;-85
2023/08/08 08:13:11;;;;;;;0.65;0.65;;;;;;;15.81;77.76;100858.09;5197383;28;20138;-85
2023/08/08 08:16:03;;;;;;;0.20;0.20;;;;;;;15.83;77.94;100858.91;5185006;28;20025;-85
2023/08/08 08:18:54;;;;;;;0.70;0.70;;;;;;;15.91;77.59;100863.84;5199301;28;20064;-85
2023/08/08 08:21:45;;;;;;;0.47;0.47;;;;;;;15.84;77.94;100847.41;5212666;28;20086;-85
2023/08/08 08:24:36;;;;;;;4.70;0.98;;;;;;;15.88;78.68;100862.19;5194753;28;20033;-85
2023/08/08 08:27:26;;;;;;;0.38;0.38;;;;;;;15.96;78.07;100856.56;5198279;28;20064;-86
2023/08/08 08:30:18;;;;;;;0.98;0.98;;;;;;;16.01;77.99;100854.53;5186048;28;20039;-86
2023/08/08 08:33:10;;;;;;;0.60;0.60;;;;;;;15.86;78.60;100861.44;5191811;28;20052;-85
2023/08/08 08:36:00;;;;;;;0.60;0.60;;;;;;;15.84;79.93;100852.69;5194452;28;20036;-85
2023/08/08 08:38:52;;;;;;;0.73;0.73;;;;;;;16.00;79.43;100854.63;5190633;28;20155;-85
2023/08/08 08:41:48;;;;;;;2.08;1.48;;;;;;;16.10;78.77;100849.72;5213851;28;20067;-85
2023/08/08 08:44:40;;;;;;;0.98;0.93;;;;;;;16.04;79.58;100854.41;5206434;28;20477;-85
2023/08/08 08:47:31;;;;;;;7.38;1.20;;;;;;;16.15;78.46;100845.09;5204033;28;20277;-86
2023/08/08 08:50:22;;;;;;;0.57;0.57;;;;;;;16.17;80.02;100859.09;5209183;28;20044;-86
2023/08/08 08:53:15;;;;;;;2.35;1.02;;;;;;;15.86;82.67;100866.72;5209640;28;20104;-85
2023/08/08 08:56:06;;;;;;;1.30;0.95;;;;;;;15.74;83.41;100865.44;5220925;28;20025;-86
2023/08/08 08:58:57;;;;;;;2.50;0.77;;;;;;;15.60;84.56;100867.03;5209879;28;20033;-86
2023/08/08 09:01:49;;;;;;;1.20;0.98;;;;;;;15.88;82.54;100874.59;5198225;28;20033;-86
2023/08/08 09:04:41;;;;;;;0.52;0.52;;;;;;;15.85;82.41;100867.66;5187596;28;20401;-85
2023/08/08 09:07:33;;;;;;;0.50;0.50;;;;;;;16.06;81.41;100859.59;5186667;28;20468;-86
2023/08/08 09:10:24;;;;;;;0.93;0.88;;;;;;;16.00;82.60;100863.41;5193405;28;20184;-86
2023/08/08 09:13:15;;;;;;;0.40;0.40;;;;;;;16.02;81.76;100860.69;5178707;28;20037;-87
2023/08/08 09:16:07;;;;;;;12.25;1.75;;;;;;;15.97;82.83;100866.22;5203013;28;20064;-85
2023/08/08 09:18:57;;;;;;;0.20;0.20;;;;;;;16.10;81.38;100852.38;5209632;28;20462;-85
2023/08/08 09:21:50;;;;;;;0.32;0.32;;;;;;;16.15;81.40;100858.31;5189119;28;20073;-85
2023/08/08 09:24:41;;;;;;;2.63;0.77;;;;;;;16.14;82.92;100854.81;5197565;28;20060;-85
2023/08/08 09:27:32;;;;;;;0.85;0.85;;;;;;;16.02;83.99;100848.31;5194328;28;20504;-85
2023/08/08 09:30:23;;;;;;;0.88;0.75;;;;;;;16.16;82.58;100852.94;5197870;28;20076;-86
2023/08/08 09:33:14;;;;;;;0.40;0.32;;;;;;;16.27;82.92;100847.13;5193716;28;20021;-86
2023/08/08 09:36:05;;;;;;;1.30;0.98;;;;;;;16.36;82.84;100857.25;5194896;28;20026;-85
2023/08/08 09:38:56;;;;;;;0.40;0.40;;;;;;;16.42;83.23;100848.16;5182188;28;20033;-86
2023/08/08 09:41:47;;;;;;;3.97;1.88;;;;;;;16.44;82.70;100848.97;5174823;28;20036;-86
2023/08/08 09:44:39;;;;;;;0.73;0.63;;;;;;;16.39;81.14;100852.75;5208966;28;20659;-86
2023/08/08 09:47:31;;;;;;;0.50;0.50;;;;;;;16.49;80.42;100844.28;5200908;28;20029;-85
2023/08/08 09:50:22;;;;;;;1.05;0.70;;;;;;;16.59;80.04;100849.13;5198976;28;20108;-86
2023/08/08 09:53:12;;;;;;;2.28;1.27;;;;;;;16.47;79.56;100853.25;5192091;28;20039;-86
2023/08/08 09:56:05;;;;;;;4.57;2.20;;;;;;;16.53;79.97;100844.97;5186282;28;20103;-86
2023/08/08 09:58:57;;;;;;;0.30;0.30;;;;;;;16.59;79.28;100849.13;5187138;28;20032;-86
2023/08/08 10:01:48;;;;;;;8.00;1.30;;;;;;;16.59;79.27;100854.41;5179539;28;20063;-85
2023/08/08 10:04:39;;;;;;;0.28;0.28;;;;;;;16.60;78.22;100854.31;5200604;28;20068;-86
2023/08/08 10:07:30;;;;;;;0.70;0.70;;;;;;;16.63;77.65;100856.84;5199486;28;20052;-85
2023/08/08 10:10:21;;;;;;;0.30;0.30;;;;;;;16.75;77.62;100859.78;5197499;28;20048;-85
2023/08/08 10:13:26;;;;;;;0.35;0.35;;;;;;;16.77;77.31;100860.56;5193832;28;20305;-85
2023/08/08 10:16:20;;;;;;;0.30;0.30;;;;;;;16.76;77.27;100861.50;5197475;28;20021;-85
2023/08/08 10:19:11;;;;;;;1.45;1.10;;;;;;;16.85;77.01;100866.31;5205292;28;20046;-86
2023/08/08 10:22:05;;;;;;;1.17;0.93;;;;;;;16.87;76.12;100868.88;5187921;28;20037;-85
2023/08/08 10:24:56;;;;;;;0.50;0.50;;;;;;;16.89;75.36;100862.59;5200920;28;20028;-88
2023/08/08 10:27:47;;;;;;;1.17;0.50;;;;;;;16.90;75.31;100860.78;5201973;28;20029;-86
2023/08/08 10:30:52;;;;;;;1.00;0.80;;;;;;;16.78;74.70;100857.81;5191650;28;20033;-86
2023/08/08 10:33:43;;;;;;;0.28;0.28;;;;;;;16.77;74.42;100858.78;5189049;28;20021;-86
2023/08/08 10:36:48;;;;;;;0.20;0.20;;;;;;;16.81;74.73;100855.03;5197922;28;20064;-87
2023/08/08 10:39:52;;;;;;;1.23;0.70;;;;;;;16.86;74.83;100851.31;5202643;28;20492;-85
2023/08/08 10:42:45;;;;;;;0.43;0.43;;;;;;;16.89;75.01;100851.13;5192686;28;20055;-86
2023/08/08 10:45:36;;;;;;;0.40;0.40;;;;;;;16.90;74.13;100843.09;5186546;28;20035;-84
2023/08/08 10:48:27;;;;;;;0.55;0.55;;;;;;;16.96;74.41;100841.94;5202299;28;20106;-85
2023/08/08 10:51:19;;;;;;;0.40;0.40;;;;;;;16.89;72.82;100852.00;5188931;28;20119;-86
2023/08/08 10:54:13;;;;;;;0.50;0.50;;;;;;;16.84;72.46;100854.00;5185984;28;20021;-86
2023/08/08 10:57:15;;;;;;;1.20;1.13;;;;;;;16.83;71.39;100845.22;5193832;28;20413;-86
2023/08/08 11:00:17;;;;;;;0.75;0.75;;;;;;;16.79;71.83;100850.75;5189980;28;20477;-85
2023/08/08 11:03:08;;;;;;;0.85;0.55;;;;;;;16.77;71.78;100860.56;5190980;28;20108;-86
2023/08/08 11:06:01;;;;;;;0.30;0.30;;;;;;;16.76;72.46;100862.38;5191493;28;20446;-86
2023/08/08 11:08:54;;;;;;;0.57;0.57;;;;;;;16.78;72.95;100862.28;5209882;28;20025;-84
2023/08/08 11:11:46;;;;;;;3.78;1.15;;;;;;;16.78;72.85;100857.81;5188574;28;20037;-85
2023/08/08 11:14:36;;;;;;;0.60;0.60;;;;;;;16.84;73.56;100859.31;5197800;28;20195;-86
2023/08/08 11:17:27;;;;;;;0.50;0.50;;;;;;;16.81;73.36;100852.38;5217371;28;20041;-85
2023/08/08 11:20:18;;;;;;;0.30;0.30;;;;;;;16.91;73.24;100860.69;5180834;28;20403;-85
2023/08/08 11:23:12;;;;;;;3.40;1.17;;;;;;;16.97;73.56;100860.44;5187209;28;20033;-86
2023/08/08 11:26:02;;;;;;;;;;;;;;;16.86;74.03;100856.59;5193944;28;20374;-86
2023/08/08 11:28:53;;;;;;;0.47;0.47;;;;;;;16.87;75.09;100853.88;5215884;28;19925;-85
2023/08/08 11:31:44;;;;;;;1.55;1.45;;;;;;;16.56;77.31;100847.47;5201033;28;20068;-83
2023/08/08 11:34:35;;;;;;;0.30;0.30;;;;;;;16.59;76.86;100839.38;5199809;28;20064;-87
2023/08/08 11:37:26;;;;;;;0.70;0.70;;;;;;;16.56;76.91;100843.97;5185368;28;20026;-85
2023/08/08 11:40:18;;;;;;;0.52;0.43;;;;;;;16.83;75.60;100828.44;5197004;28;20536;-87
2023/08/08 11:43:09;;;;;;;0.50;0.50;;;;;;;16.92;75.05;100830.63;5200091;28;20037;-86
2023/08/08 11:46:00;;;;;;;0.63;0.63;;;;;;;16.94;75.50;100839.38;5193059;28;20033;-86
2023/08/08 11:48:51;;;;;;;0.30;0.30;;;;;;;16.81;76.87;100844.44;5199662;28;20027;-87
2023/08/08 11:51:45;;;;;;;0.90;0.90;;;;;;;16.58;78.38;100853.53;5181508;28;20087;-85
2023/08/08 11:54:38;;;;;;;0.60;0.60;;;;;;;16.58;78.59;100845.59;5201738;28;20109;-87
2023/08/08 11:57:28;;;;;;;0.20;0.20;;;;;;;16.26;79.89;100842.75;5197731;28;20071;-85
2023/08/08 12:00:19;;;;;;;0.30;0.30;;;;;;;16.15;80.91;100843.28;5183902;28;20132;-86
2023/08/08 12:03:11;;;;;;;0.68;0.68;;;;;;;16.24;80.95;100851.72;5192512;28;20025;-86
2023/08/08 12:06:10;;;;;;;0.40;0.40;;;;;;;16.16;81.07;100860.00;5185233;28;20025;-88
2023/08/08 12:09:02;;;;;;;0.88;0.88;;;;;;;16.12;82.12;100850.53;5206215;28;20040;-87
2023/08/08 12:11:53;;;;;;;0.40;0.40;;;;;;;16.02;81.29;100850.13;5182220;28;20036;-86
2023/08/08 12:14:44;;;;;;;0.30;0.30;;;;;;;16.10;80.56;100845.31;5181768;28;20361;-87
2023/08/08 12:17:39;;;;;;;1.58;1.48;;;;;;;15.92;80.49;100841.75;5188576;28;20067;-89
2023/08/08 12:20:31;;;;;;;0.60;0.57;;;;;;;16.18;79.36;100836.97;5182841;28;20033;-87
2023/08/08 12:23:21;;;;;;;0.35;0.35;;;;;;;16.20;79.67;100835.13;5188793;28;20034;-91
2023/08/08 12:26:12;;;;;;;0.50;0.50;;;;;;;16.23;79.56;100842.94;5199928;28;20503;-89
2023/08/08 12:29:03;;;;;;;0.40;0.40;;;;;;;16.36;78.56;100836.09;5183956;28;20049;-90
2023/08/08 12:31:54;;;;;;;0.57;0.57;;;;;;;16.55;78.65;100832.53;5201261;28;20032;-89
2023/08/08 12:34:45;;;;;;;0.63;0.63;;;;;;;16.47;79.36;100845.28;5199474;28;20514;-88
2023/08/08 12:37:36;;;;;;;0.40;0.40;;;;;;;16.53;79.48;100837.03;5190603;28;20039;-87
2023/08/08 12:40:27;;;;;;;0.40;0.40;;;;;;;16.65;78.73;100844.34;5212178;28;20033;-87
2023/08/08 12:43:17;;;;;;;0.32;0.32;;;;;;;16.81;79.03;100838.28;5191144;28;20447;-88
2023/08/08 12:46:08;;;;;;;1.55;1.05;;;;;;;16.82;80.43;100843.50;5183346;28;20029;-87
2023/08/08 12:48:59;;;;;;;4.38;0.68;;;;;;;16.86;80.12;100840.69;5178648;28;20048;-87
2023/08/08 12:51:51;;;;;;;0.40;0.40;;;;;;;17.04;79.77;100839.75;5191169;28;20037;-87
2023/08/08 12:54:42;;;;;;;0.30;0.30;;;;;;;17.38;81.34;100835.31;5183437;28;20061;-87
2023/08/08 12:57:33;;;;;;;0.40;0.40;;;;;;;17.61;79.83;100826.13;5193001;28;20325;-87
2023/08/08 13:00:24;;;;;;;0.70;0.70;;;;;;;17.69;77.75;100824.84;5185362;28;20057;-87
2023/08/08 13:03:15;;;;;;;0.73;0.73;;;;;;;17.81;76.67;100817.97;5193154;28;20029;-87
2023/08/08 13:06:06;;;;;;;0.30;0.30;;;;;;;17.87;76.36;100813.19;5184324;28;20028;-87
2023/08/08 13:08:56;;;;;;;2.50;1.50;;;;;;;17.75;75.19;100820.06;5196668;28;20125;-87
2023/08/08 13:11:47;;;;;;;0.35;0.35;;;;;;;17.75;75.58;100803.25;5188632;28;20101;-88